createdAt,value
2023-05-10T00:00:09.429Z,60.72
2023-05-10T00:05:08.895Z,60.73
2023-05-10T00:10:08.923Z,60.76
2023-05-10T00:15:08.006Z,60.79
2023-05-10T00:20:08.023Z,60.79
2023-05-10T00:25:08.060Z,60.8
2023-05-10T00:30:08.097Z,60.82
2023-05-10T00:35:08.130Z,60.86
2023-05-10T00:40:08.138Z,60.87
2023-05-10T00:45:08.126Z,60.88
2023-05-10T00:50:08.182Z,60.89
2023-05-10T00:55:08.172Z,60.9
2023-05-10T01:00:08.191Z,60.9
2023-05-10T01:05:08.858Z,60.9
2023-05-10T01:10:07.956Z,60.92
2023-05-10T01:15:07.942Z,60.92
2023-05-10T01:20:07.948Z,60.94
2023-05-10T01:25:07.964Z,60.95
2023-05-10T01:30:15.694Z,60.95
2023-05-10T01:35:08.904Z,60.97
2023-05-10T01:40:08.949Z,60.96
2023-05-10T01:45:07.930Z,60.94
2023-05-10T01:50:16.060Z,60.96
2023-05-10T01:55:08.365Z,60.95
2023-05-10T02:00:08.363Z,60.96
2023-05-10T02:05:08.370Z,60.96
2023-05-10T02:10:09.728Z,60.95
2023-05-10T02:15:10.735Z,60.96
2023-05-10T02:20:08.727Z,60.96
2023-05-10T02:25:08.732Z,60.94
2023-05-10T02:30:08.719Z,60.96
2023-05-10T02:35:08.702Z,60.96
2023-05-10T02:40:08.672Z,60.99
2023-05-10T02:45:08.682Z,60.94
2023-05-10T02:50:08.700Z,60.95
2023-05-10T02:55:08.710Z,60.98
2023-05-10T03:00:08.718Z,60.95
2023-05-10T03:05:08.724Z,60.97
2023-05-10T03:10:08.723Z,60.95
2023-05-10T03:15:08.725Z,60.96
2023-05-10T03:20:08.773Z,60.94
2023-05-10T03:25:08.780Z,60.96
2023-05-10T03:30:08.749Z,60.95
2023-05-10T03:35:08.775Z,60.95
2023-05-10T03:40:08.779Z,60.96
2023-05-10T03:45:08.761Z,60.93
2023-05-10T03:50:08.798Z,60.97
2023-05-10T03:55:08.887Z,60.96
2023-05-10T04:00:08.902Z,60.96
2023-05-10T04:05:03.039Z,60.96
2023-05-10T04:10:02.156Z,60.96
2023-05-10T04:15:02.222Z,60.95
2023-05-10T04:20:02.326Z,60.97
2023-05-10T04:25:02.311Z,60.97
2023-05-10T04:30:02.398Z,60.97
2023-05-10T04:35:02.521Z,60.99
2023-05-10T04:40:22.437Z,60.98
2023-05-10T04:45:08.438Z,61.0
2023-05-10T04:50:08.433Z,61.0
2023-05-10T04:55:08.433Z,61.0
2023-05-10T05:00:08.432Z,61.0
2023-05-10T05:05:08.421Z,61.01
2023-05-10T05:10:08.428Z,61.01
2023-05-10T05:15:09.762Z,61.03
2023-05-10T05:20:08.954Z,61.05
2023-05-10T05:25:07.998Z,61.03
2023-05-10T05:30:08.015Z,61.03
2023-05-10T05:35:08.004Z,61.06
2023-05-10T05:40:08.015Z,61.04
2023-05-10T05:45:08.017Z,61.05
2023-05-10T05:50:08.040Z,61.05
2023-05-10T05:55:08.117Z,61.03
2023-05-10T06:00:08.144Z,61.04
2023-05-10T06:05:08.133Z,61.02
2023-05-10T06:10:08.120Z,61.01
2023-05-10T06:15:08.116Z,61.01
2023-05-10T06:20:08.136Z,61.02
2023-05-10T06:25:08.152Z,61.0
2023-05-10T06:30:12.833Z,61.0
2023-05-10T06:35:08.533Z,61.0
2023-05-10T06:40:08.648Z,60.99
2023-05-10T06:45:08.695Z,61.0
2023-05-10T06:50:08.712Z,60.99
2023-05-10T06:55:08.764Z,60.99
2023-05-10T07:00:08.801Z,60.99
2023-05-10T07:05:08.879Z,60.99
2023-05-10T07:10:07.975Z,60.99
2023-05-10T07:15:08.019Z,60.99
2023-05-10T07:20:08.028Z,60.9
2023-05-10T07:25:08.008Z,60.86
2023-05-10T07:30:08.026Z,60.82
2023-05-10T07:35:08.027Z,60.78
2023-05-10T07:40:08.117Z,60.74
2023-05-10T07:45:08.124Z,60.71
2023-05-10T07:50:08.173Z,60.68
2023-05-10T07:55:02.350Z,60.63
2023-05-10T08:00:02.528Z,60.63
2023-05-10T08:05:02.798Z,60.58
2023-05-10T08:10:02.925Z,60.53
2023-05-10T08:15:03.050Z,60.5
2023-05-10T08:20:02.428Z,60.48
2023-05-10T08:25:02.581Z,60.45
2023-05-10T08:30:02.719Z,60.42
2023-05-10T08:35:02.935Z,60.41
2023-05-10T08:40:02.085Z,60.4
2023-05-10T08:45:02.179Z,60.44
2023-05-10T08:50:02.221Z,60.46
2023-05-10T08:55:02.285Z,60.52
2023-05-10T09:00:02.420Z,60.54
2023-05-10T09:05:02.674Z,60.58
2023-05-10T09:10:02.864Z,60.59
2023-05-10T09:15:03.106Z,60.61
2023-05-10T09:20:02.402Z,60.6
2023-05-10T09:25:02.624Z,60.61
2023-05-10T09:30:02.980Z,60.59
2023-05-10T09:35:02.119Z,60.56
2023-05-10T09:40:02.310Z,60.55
2023-05-10T09:45:02.379Z,60.54
2023-05-10T09:50:02.599Z,60.52
2023-05-10T09:55:02.804Z,60.54
2023-05-10T10:00:03.026Z,60.54
2023-05-10T10:05:02.202Z,60.54
2023-05-10T10:10:02.419Z,60.56
2023-05-10T10:15:02.512Z,60.59
2023-05-10T10:20:02.667Z,60.58
2023-05-10T10:25:03.224Z,60.58
2023-05-10T10:30:02.688Z,60.57
2023-05-10T10:35:02.832Z,60.56
2023-05-10T10:40:02.972Z,60.55
2023-05-10T10:45:02.107Z,60.49
2023-05-10T10:50:02.353Z,60.5
2023-05-10T10:55:11.014Z,60.46
2023-05-10T11:00:02.256Z,60.44
2023-05-10T11:05:02.556Z,60.44
2023-05-10T11:10:02.696Z,60.4
2023-05-10T11:15:02.828Z,60.37
2023-05-10T11:20:03.998Z,60.35
2023-05-10T11:25:02.092Z,60.35
2023-05-10T11:30:13.640Z,60.36
2023-05-10T11:35:02.947Z,60.38
2023-05-10T11:40:02.109Z,60.43
2023-05-10T11:45:02.312Z,60.44
2023-05-10T11:50:02.306Z,60.5
2023-05-10T11:55:02.567Z,60.5
2023-05-10T11:55:33.706Z,60.5
2023-05-10T12:00:00.834Z,60.58
2023-05-10T12:00:02.585Z,60.58
2023-05-10T12:05:02.708Z,60.61
2023-05-10T12:10:02.844Z,60.61
2023-05-10T12:15:02.853Z,60.59
2023-05-10T12:20:02.903Z,60.61
2023-05-10T12:25:03.012Z,60.58
2023-05-10T12:30:02.177Z,60.57
2023-05-10T12:35:09.696Z,60.57
2023-05-10T12:40:02.829Z,60.54
2023-05-10T12:45:02.890Z,60.54
2023-05-10T12:50:02.927Z,60.49
2023-05-10T12:55:02.999Z,60.43
2023-05-10T13:00:02.169Z,60.4
2023-05-10T13:05:02.395Z,60.33
2023-05-10T13:10:02.532Z,60.33
2023-05-10T13:15:02.611Z,60.28
2023-05-10T13:20:02.755Z,60.24
2023-05-10T13:25:02.748Z,60.23
2023-05-10T13:30:02.834Z,60.22
2023-05-10T13:35:03.712Z,60.22
2023-05-10T13:40:02.745Z,60.22
2023-05-10T13:45:02.847Z,60.2
2023-05-10T13:50:03.041Z,60.17
2023-05-10T13:55:02.080Z,60.14
2023-05-10T14:00:02.568Z,60.05
2023-05-10T14:05:02.706Z,59.96
2023-05-10T14:10:02.801Z,59.87
2023-05-10T14:15:02.983Z,59.8
2023-05-10T14:20:02.027Z,59.73
2023-05-10T14:25:02.110Z,59.66
2023-05-10T14:30:02.253Z,59.64
2023-05-10T14:35:02.392Z,59.65
2023-05-10T14:40:02.438Z,59.68
2023-05-10T14:45:02.622Z,59.69
2023-05-10T14:50:02.762Z,59.69
2023-05-10T14:55:02.889Z,59.8
2023-05-10T15:00:03.063Z,59.9
2023-05-10T15:05:02.545Z,59.98
2023-05-10T15:10:03.007Z,60.08
2023-05-10T15:15:02.163Z,60.19
2023-05-10T15:20:02.354Z,60.29
2023-05-10T15:25:02.579Z,60.4
2023-05-10T15:30:02.744Z,60.4
2023-05-10T15:35:02.846Z,60.4
2023-05-10T15:40:02.990Z,60.63
2023-05-10T15:45:02.208Z,60.7
2023-05-10T15:50:02.353Z,60.75
2023-05-10T15:55:02.492Z,60.75
2023-05-10T16:00:02.827Z,60.75
2023-05-10T16:05:02.942Z,60.86
2023-05-10T16:10:02.250Z,60.91
2023-05-10T16:15:02.316Z,60.93
2023-05-10T16:20:02.457Z,60.93
2023-05-10T16:25:04.541Z,60.98
2023-05-10T16:30:04.486Z,61.01
2023-05-10T16:35:02.570Z,61.04
2023-05-10T16:40:03.661Z,61.03
2023-05-10T16:45:03.117Z,61.04
2023-05-10T16:50:02.145Z,61.03
2023-05-10T16:55:02.138Z,61.05
2023-05-10T17:00:02.344Z,61.05
2023-05-10T17:05:02.458Z,61.06
2023-05-10T17:10:02.536Z,61.07
2023-05-10T17:15:02.692Z,61.08
2023-05-10T17:20:02.916Z,61.1
2023-05-10T17:25:01.998Z,61.12
2023-05-10T17:30:02.109Z,61.13
2023-05-10T17:35:02.342Z,61.14
2023-05-10T17:40:12.426Z,61.15
2023-05-10T17:45:02.533Z,61.14
2023-05-10T17:50:02.567Z,61.18
2023-05-10T17:55:02.705Z,61.2
2023-05-10T18:00:02.830Z,61.22
2023-05-10T18:05:04.133Z,61.24
2023-05-10T18:10:02.310Z,61.27
2023-05-10T18:15:02.510Z,61.27
2023-05-10T18:20:02.662Z,61.31
2023-05-10T18:25:02.943Z,61.34
2023-05-10T18:30:02.164Z,61.31
2023-05-10T18:35:02.296Z,61.36
2023-05-10T18:40:02.416Z,61.38
2023-05-10T18:45:02.460Z,61.41
2023-05-10T18:50:02.519Z,61.42
2023-05-10T18:55:02.603Z,61.43
2023-05-10T19:00:02.720Z,61.45
2023-05-10T19:05:02.834Z,61.47
2023-05-10T19:10:02.890Z,61.52
2023-05-10T19:15:03.091Z,61.52
2023-05-10T19:20:02.626Z,61.53
2023-05-10T19:25:02.113Z,61.57
2023-05-10T19:30:02.158Z,61.59
2023-05-10T19:35:02.321Z,61.59
2023-05-10T19:40:02.403Z,61.65
2023-05-10T19:45:02.417Z,61.67
2023-05-10T19:50:02.433Z,61.7
2023-05-10T19:55:02.649Z,61.69
2023-05-10T20:00:02.800Z,61.71
2023-05-10T20:05:03.002Z,61.73
2023-05-10T20:10:02.119Z,61.75
2023-05-10T20:15:02.349Z,61.75
2023-05-10T20:20:02.653Z,61.75
2023-05-10T20:25:02.743Z,61.77
2023-05-10T20:30:02.906Z,61.78
2023-05-10T20:35:03.064Z,61.81
2023-05-10T20:40:02.120Z,61.81
2023-05-10T20:45:02.272Z,61.81
2023-05-10T20:50:02.360Z,61.85
2023-05-10T20:55:02.533Z,61.86
2023-05-10T21:00:02.709Z,61.84
2023-05-10T21:05:15.772Z,61.84
2023-05-10T21:10:08.862Z,61.88
2023-05-10T21:15:08.868Z,61.88
2023-05-10T21:20:08.882Z,61.9
2023-05-10T21:25:08.918Z,61.9
2023-05-10T21:30:07.954Z,61.92
2023-05-10T21:35:07.941Z,61.92
2023-05-10T21:40:07.987Z,61.94
2023-05-10T21:45:08.022Z,61.94
2023-05-10T21:50:08.003Z,61.97
2023-05-10T21:55:08.023Z,61.96
2023-05-10T22:00:08.044Z,61.97
2023-05-10T22:05:08.085Z,61.97
2023-05-10T22:10:08.076Z,61.97
2023-05-10T22:15:11.103Z,62.0
2023-05-10T22:20:08.261Z,61.99
2023-05-10T22:25:08.255Z,61.99
2023-05-10T22:30:08.313Z,62.02
2023-05-10T22:35:08.371Z,62.03
2023-05-10T22:40:08.588Z,62.02
2023-05-10T22:45:08.554Z,62.02
2023-05-10T22:50:08.589Z,62.06
2023-05-10T22:55:08.596Z,62.02
2023-05-10T23:01:15.800Z,62.04
2023-05-10T23:05:08.999Z,62.04
2023-05-10T23:10:08.183Z,62.05
2023-05-10T23:15:08.223Z,62.05
2023-05-10T23:20:08.186Z,62.06
2023-05-10T23:25:08.188Z,62.06
2023-05-10T23:30:08.181Z,62.07
2023-05-10T23:35:08.158Z,62.07
2023-05-10T23:40:08.220Z,62.07
2023-05-10T23:50:08.163Z,62.07
